Time;durP1;ratioP1;P1;durP2;ratioP2;P2;SDS_P1;SDS_P2;PMS_P1;PMS_P2;Temp;Humidity;BMP_temperature;BMP_pressure;BME280_temperature;BME280_humidity;BME280_pressure;Samples;Min_cycle;Max_cycle;Signal;HPM_P1;HPM_P2
2024/01/09 00:00:22;;;;;;;10.20;9.20;;;;;;;;;;5093829;28;20386;-79
2024/01/09 00:02:48;;;;;;;10.57;9.57;;;;;;;;;;5094090;28;20415;-79
2024/01/09 00:05:14;;;;;;;10.82;9.82;;;;;;;;;;5093636;28;20465;-79
2024/01/09 00:07:40;;;;;;;10.48;9.48;;;;;;;;;;5094209;28;20374;-79
2024/01/09 00:10:08;;;;;;;11.30;10.25;;;;;;;;;;5094349;28;20406;-79
2024/01/09 00:12:34;;;;;;;11.43;10.13;;;;;;;;;;5095180;28;20382;-79
2024/01/09 00:15:00;;;;;;;10.67;9.67;;;;;;;;;;5098541;28;20461;-79
2024/01/09 00:17:26;;;;;;;11.70;10.60;;;;;;;;;;5097849;28;20402;-79
2024/01/09 00:19:51;;;;;;;11.55;10.45;;;;;;;;;;5098374;28;20385;-79
2024/01/09 00:22:18;;;;;;;10.32;9.43;;;;;;;;;;5098252;28;20378;-79
2024/01/09 00:24:43;;;;;;;11.20;10.10;;;;;;;;;;5096706;28;20378;-79
2024/01/09 00:27:09;;;;;;;11.13;10.00;;;;;;;;;;5091866;28;20381;-79
2024/01/09 00:29:35;;;;;;;11.13;10.13;;;;;;;;;;5096649;28;20911;-79
2024/01/09 00:32:02;;;;;;;11.03;10.00;;;;;;;;;;5097745;28;20432;-79
2024/01/09 00:34:27;;;;;;;11.38;10.27;;;;;;;;;;5098019;28;20381;-78
2024/01/09 00:36:53;;;;;;;11.03;9.93;;;;;;;;;;5097384;28;20460;-78
2024/01/09 00:39:19;;;;;;;11.50;10.40;;;;;;;;;;5097828;28;20370;-79
2024/01/09 00:41:45;;;;;;;10.85;9.85;;;;;;;;;;5097413;28;20414;-78
2024/01/09 00:44:11;;;;;;;11.18;10.18;;;;;;;;;;5097201;28;20473;-78
2024/01/09 00:46:37;;;;;;;11.77;10.57;;;;;;;;;;5097256;28;20380;-78
2024/01/09 00:49:03;;;;;;;11.03;9.93;;;;;;;;;;5097453;28;20385;-78
2024/01/09 00:51:29;;;;;;;11.00;9.82;;;;;;;;;;5097235;28;20445;-78
2024/01/09 00:53:55;;;;;;;11.27;10.17;;;;;;;;;;5097572;28;20374;-78
2024/01/09 00:56:21;;;;;;;10.77;9.77;;;;;;;;;;5096984;28;20378;-78
2024/01/09 00:58:47;;;;;;;10.75;9.70;;;;;;;;;;5097273;28;20381;-78
2024/01/09 01:01:13;;;;;;;11.48;10.25;;;;;;;;;;5097055;28;20390;-78
2024/01/09 01:03:40;;;;;;;11.23;10.23;;;;;;;;;;5097123;28;20378;-78
2024/01/09 01:06:06;;;;;;;12.70;11.40;;;;;;;;;;5097201;28;20386;-78
2024/01/09 01:08:32;;;;;;;11.82;10.73;;;;;;;;;;5096633;28;20389;-78
2024/01/09 01:10:58;;;;;;;11.43;10.32;;;;;;;;;;5096758;28;20402;-78
2024/01/09 01:13:24;;;;;;;11.60;10.48;;;;;;;;;;5096648;28;20380;-78
2024/01/09 01:15:50;;;;;;;11.57;10.48;;;;;;;;;;5096760;28;20915;-79
2024/01/09 01:18:16;;;;;;;12.02;10.82;;;;;;;;;;5096411;28;20376;-79
2024/01/09 01:20:42;;;;;;;12.00;10.80;;;;;;;;;;5096086;28;20786;-79
2024/01/09 01:23:08;;;;;;;12.07;10.88;;;;;;;;;;5096535;28;20378;-79
2024/01/09 01:25:34;;;;;;;12.23;11.13;;;;;;;;;;5097031;28;20378;-79
2024/01/09 01:28:00;;;;;;;12.75;11.55;;;;;;;;;;5096728;28;20378;-79
2024/01/09 01:30:26;;;;;;;12.57;11.18;;;;;;;;;;5096928;28;20405;-79
2024/01/09 01:32:52;;;;;;;11.90;10.67;;;;;;;;;;5096694;28;20434;-79
2024/01/09 01:35:18;;;;;;;12.25;11.05;;;;;;;;;;5096466;28;20374;-79
2024/01/09 01:37:44;;;;;;;12.43;11.23;;;;;;;;;;5096093;28;20733;-79
2024/01/09 01:40:10;;;;;;;11.57;10.48;;;;;;;;;;5096313;28;20462;-79
2024/01/09 01:42:36;;;;;;;11.65;10.55;;;;;;;;;;5096282;28;20378;-79
2024/01/09 01:45:02;;;;;;;11.85;10.73;;;;;;;;;;5096017;28;20384;-79
2024/01/09 01:47:28;;;;;;;12.68;11.38;;;;;;;;;;5095956;28;20418;-79
2024/01/09 01:49:54;;;;;;;12.93;11.65;;;;;;;;;;5096447;28;20386;-79
2024/01/09 01:52:20;;;;;;;12.70;11.50;;;;;;;;;;5095828;28;20476;-79
2024/01/09 01:54:46;;;;;;;15.40;11.77;;;;;;;;;;5095251;28;20421;-79
2024/01/09 01:57:13;;;;;;;13.23;11.82;;;;;;;;;;5095816;28;20788;-79
2024/01/09 01:59:40;;;;;;;13.13;11.68;;;;;;;;;;5095945;28;20789;-79
2024/01/09 02:02:06;;;;;;;11.73;10.52;;;;;;;;;;5096010;28;20399;-79
2024/01/09 02:04:33;;;;;;;12.13;10.83;;;;;;;;;;5096406;28;20447;-79
2024/01/09 02:06:59;;;;;;;12.05;10.77;;;;;;;;;;5096507;28;20773;-79
2024/01/09 02:09:26;;;;;;;12.15;10.88;;;;;;;;;;5096044;28;20382;-79
2024/01/09 02:11:52;;;;;;;13.67;11.67;;;;;;;;;;5096213;28;20410;-78
2024/01/09 02:14:18;;;;;;;12.02;10.80;;;;;;;;;;5096033;28;20381;-78
2024/01/09 02:16:44;;;;;;;13.13;11.55;;;;;;;;;;5095934;28;20921;-79
2024/01/09 02:19:10;;;;;;;12.70;11.32;;;;;;;;;;5095986;28;20378;-79
2024/01/09 02:21:36;;;;;;;12.13;10.55;;;;;;;;;;5096622;28;20378;-78
2024/01/09 02:24:02;;;;;;;11.35;9.93;;;;;;;;;;5095616;28;20766;-78
2024/01/09 02:26:31;;;;;;;13.55;11.95;;;;;;;;;;5095810;28;20378;-79
2024/01/09 02:29:02;;;;;;;13.40;12.00;;;;;;;;;;5092410;28;20409;-78
2024/01/09 02:31:28;;;;;;;11.40;10.20;;;;;;;;;;5095608;28;20410;-79
2024/01/09 02:33:54;;;;;;;12.98;11.68;;;;;;;;;;5095819;28;20385;-79
2024/01/09 02:36:20;;;;;;;13.23;11.80;;;;;;;;;;5094885;28;20418;-79
2024/01/09 02:38:46;;;;;;;11.32;10.13;;;;;;;;;;5095419;28;20382;-79
2024/01/09 02:41:12;;;;;;;13.10;10.60;;;;;;;;;;5095817;28;20441;-79
2024/01/09 02:43:38;;;;;;;12.00;10.27;;;;;;;;;;5095152;28;20444;-79
2024/01/09 02:46:04;;;;;;;10.55;9.45;;;;;;;;;;5095278;28;20389;-78
2024/01/09 02:48:30;;;;;;;10.90;9.63;;;;;;;;;;5095645;28;20828;-79
2024/01/09 02:50:56;;;;;;;11.27;9.65;;;;;;;;;;5095826;28;20410;-78
2024/01/09 02:53:22;;;;;;;11.57;10.30;;;;;;;;;;5095450;28;20374;-79
2024/01/09 02:55:48;;;;;;;11.30;10.20;;;;;;;;;;5077209;28;20899;-78
2024/01/09 02:58:14;;;;;;;12.25;10.95;;;;;;;;;;5095273;28;20845;-78
2024/01/09 03:00:40;;;;;;;10.82;9.73;;;;;;;;;;5095052;28;20382;-79
2024/01/09 03:03:06;;;;;;;12.55;11.02;;;;;;;;;;5094538;28;20385;-78
2024/01/09 03:05:32;;;;;;;13.98;11.00;;;;;;;;;;5095063;28;20863;-78
2024/01/09 03:07:58;;;;;;;11.40;10.27;;;;;;;;;;5094412;28;20410;-79
2024/01/09 03:10:24;;;;;;;12.00;10.70;;;;;;;;;;5094395;28;20410;-79
2024/01/09 03:12:50;;;;;;;12.48;11.27;;;;;;;;;;5080457;28;20395;-79
2024/01/09 03:15:16;;;;;;;12.50;11.20;;;;;;;;;;5094750;28;20840;-79
2024/01/09 03:17:42;;;;;;;12.57;11.25;;;;;;;;;;5094400;28;20457;-79
2024/01/09 03:20:09;;;;;;;14.02;12.00;;;;;;;;;;5094307;28;20916;-79
2024/01/09 03:22:35;;;;;;;14.30;12.10;;;;;;;;;;5094826;28;20385;-78
2024/01/09 03:25:01;;;;;;;14.13;11.98;;;;;;;;;;5094453;28;20382;-78
2024/01/09 03:27:26;;;;;;;13.15;11.48;;;;;;;;;;5094405;28;20709;-79
2024/01/09 03:29:52;;;;;;;12.77;11.45;;;;;;;;;;5094521;28;20431;-79
2024/01/09 03:32:18;;;;;;;12.98;11.30;;;;;;;;;;5095111;28;20409;-79
2024/01/09 03:34:44;;;;;;;11.70;10.47;;;;;;;;;;5094053;28;20381;-79
2024/01/09 03:37:11;;;;;;;11.02;9.93;;;;;;;;;;5093837;28;20744;-78
2024/01/09 03:39:37;;;;;;;11.70;10.50;;;;;;;;;;5094795;28;20378;-79
2024/01/09 03:42:03;;;;;;;11.82;10.27;;;;;;;;;;5094176;28;20381;-79
2024/01/09 03:44:29;;;;;;;10.35;9.25;;;;;;;;;;5094420;28;20902;-79
2024/01/09 03:46:55;;;;;;;11.55;10.35;;;;;;;;;;5094302;28;20373;-79
2024/01/09 03:49:21;;;;;;;11.68;10.38;;;;;;;;;;5094333;28;20856;-79
2024/01/09 03:51:47;;;;;;;11.43;10.23;;;;;;;;;;5093828;28;20405;-78
2024/01/09 03:54:12;;;;;;;12.67;10.13;;;;;;;;;;5093923;28;20466;-79
2024/01/09 03:56:38;;;;;;;10.20;9.20;;;;;;;;;;5094635;28;20485;-78
2024/01/09 03:59:04;;;;;;;13.35;10.32;;;;;;;;;;5094174;28;20374;-79
2024/01/09 04:01:30;;;;;;;11.10;9.98;;;;;;;;;;5094419;28;20393;-78
2024/01/09 04:03:56;;;;;;;12.13;10.75;;;;;;;;;;5094051;28;20390;-78
2024/01/09 04:06:22;;;;;;;11.75;10.55;;;;;;;;;;5094488;28;20787;-78
2024/01/09 04:08:48;;;;;;;12.70;10.98;;;;;;;;;;5093950;28;20447;-78
2024/01/09 04:11:14;;;;;;;12.15;10.57;;;;;;;;;;5094145;28;20891;-79
2024/01/09 04:13:40;;;;;;;11.63;10.32;;;;;;;;;;5093876;28;20374;-78
2024/01/09 04:16:10;;;;;;;12.98;10.88;;;;;;;;;;5093537;28;20370;-79
2024/01/09 04:18:36;;;;;;;12.05;10.75;;;;;;;;;;5093568;28;20370;-78
2024/01/09 04:21:02;;;;;;;12.02;10.80;;;;;;;;;;5079446;28;20751;-78
2024/01/09 04:23:28;;;;;;;12.35;11.02;;;;;;;;;;5093759;28;20385;-78
2024/01/09 04:25:54;;;;;;;12.57;10.95;;;;;;;;;;5092756;28;20386;-78
2024/01/09 04:28:20;;;;;;;12.82;11.20;;;;;;;;;;5083112;28;20404;-78
2024/01/09 04:30:46;;;;;;;13.10;10.93;;;;;;;;;;5093338;28;20845;-79
2024/01/09 04:33:12;;;;;;;13.38;10.98;;;;;;;;;;5093363;28;20370;-78
2024/01/09 04:35:38;;;;;;;14.30;11.57;;;;;;;;;;5093865;28;20976;-78
2024/01/09 04:38:04;;;;;;;11.95;10.48;;;;;;;;;;5075191;28;20415;-78
2024/01/09 04:40:30;;;;;;;14.77;11.80;;;;;;;;;;5093654;28;20471;-78
2024/01/09 04:42:56;;;;;;;12.65;11.35;;;;;;;;;;5092943;28;20748;-78
2024/01/09 04:45:22;;;;;;;13.35;11.70;;;;;;;;;;5093332;28;20390;-78
2024/01/09 04:47:48;;;;;;;14.88;12.10;;;;;;;;;;5093464;28;20382;-78
2024/01/09 04:50:14;;;;;;;13.50;11.40;;;;;;;;;;5093471;28;20402;-78
2024/01/09 04:52:40;;;;;;;15.07;11.98;;;;;;;;;;5093107;28;20728;-78
2024/01/09 04:55:06;;;;;;;13.10;11.43;;;;;;;;;;5093067;28;20385;-78
2024/01/09 04:57:32;;;;;;;12.60;11.02;;;;;;;;;;5079286;28;20447;-78
2024/01/09 04:59:58;;;;;;;12.45;11.15;;;;;;;;;;5096116;28;20370;-78
2024/01/09 05:02:24;;;;;;;14.93;11.82;;;;;;;;;;5097116;28;20481;-78
2024/01/09 05:04:50;;;;;;;15.32;12.63;;;;;;;;;;5096595;28;20859;-78
2024/01/09 05:07:16;;;;;;;14.88;12.45;;;;;;;;;;5096764;28;20461;-78
2024/01/09 05:09:42;;;;;;;14.35;12.20;;;;;;;;;;5096664;28;20373;-78
2024/01/09 05:12:08;;;;;;;15.57;11.93;;;;;;;;;;5095951;28;20409;-78
2024/01/09 05:14:34;;;;;;;15.15;12.40;;;;;;;;;;5096993;28;20389;-78
2024/01/09 05:17:00;;;;;;;13.33;11.80;;;;;;;;;;5097280;28;20374;-78
2024/01/09 05:19:26;;;;;;;14.35;12.20;;;;;;;;;;5097331;28;20378;-78
2024/01/09 05:21:52;;;;;;;14.45;12.75;;;;;;;;;;5097676;28;20390;-78
2024/01/09 05:24:18;;;;;;;14.65;12.38;;;;;;;;;;5078732;28;20386;-78
2024/01/09 05:26:44;;;;;;;14.13;12.35;;;;;;;;;;5096771;28;20477;-78
2024/01/09 05:29:10;;;;;;;16.38;12.93;;;;;;;;;;5097106;28;20386;-78
2024/01/09 05:31:41;;;;;;;13.82;12.20;;;;;;;;;;5096735;28;20429;-78
2024/01/09 05:34:08;;;;;;;16.95;12.35;;;;;;;;;;5094563;28;20382;-78
2024/01/09 05:36:34;;;;;;;16.23;12.80;;;;;;;;;;5093807;28;20448;-78
2024/01/09 05:39:00;;;;;;;15.05;12.50;;;;;;;;;;5094247;28;20409;-78
2024/01/09 05:41:26;;;;;;;14.70;12.10;;;;;;;;;;5094260;28;20758;-78
2024/01/09 05:43:52;;;;;;;18.20;13.52;;;;;;;;;;5073087;28;20419;-77
2024/01/09 05:46:18;;;;;;;18.17;13.45;;;;;;;;;;5075997;28;20395;-78
2024/01/09 05:48:44;;;;;;;17.98;13.98;;;;;;;;;;5076347;28;20807;-78
2024/01/09 05:51:10;;;;;;;18.52;13.98;;;;;;;;;;5076018;28;20408;-78
2024/01/09 05:53:37;;;;;;;18.05;13.43;;;;;;;;;;5076086;28;20379;-78
2024/01/09 05:56:06;;;;;;;17.00;13.20;;;;;;;;;;5076298;28;20414;-78
2024/01/09 05:58:35;;;;;;;18.58;13.82;;;;;;;;;;5075921;28;20376;-78
2024/01/09 06:01:01;;;;;;;17.38;13.65;;;;;;;;;;5076020;28;20384;-78
2024/01/09 06:03:27;;;;;;;17.08;13.48;;;;;;;;;;5075964;28;20383;-78
2024/01/09 06:05:53;;;;;;;17.77;13.75;;;;;;;;;;5075777;28;20390;-78
2024/01/09 06:08:19;;;;;;;19.20;14.43;;;;;;;;;;5075043;28;20861;-78
2024/01/09 06:10:45;;;;;;;18.00;13.85;;;;;;;;;;5073949;28;20434;-78
2024/01/09 06:13:12;;;;;;;19.52;14.65;;;;;;;;;;5074171;28;20379;-78
2024/01/09 06:15:38;;;;;;;17.95;14.30;;;;;;;;;;5074173;28;20857;-78
2024/01/09 06:18:04;;;;;;;19.30;14.30;;;;;;;;;;5074530;28;20386;-77
2024/01/09 06:20:30;;;;;;;19.33;14.25;;;;;;;;;;5074152;28;20432;-78
2024/01/09 06:22:56;;;;;;;24.57;17.83;;;;;;;;;;5074744;28;20760;-78
2024/01/09 06:25:22;;;;;;;200.32;79.90;;;;;;;;;;5074484;28;20426;-77
2024/01/09 06:27:48;;;;;;;57.67;29.33;;;;;;;;;;5073685;28;20407;-78
2024/01/09 06:30:14;;;;;;;85.88;39.80;;;;;;;;;;5072262;28;20411;-78
2024/01/09 06:32:40;;;;;;;35.60;22.50;;;;;;;;;;5073354;28;20384;-77
2024/01/09 06:35:08;;;;;;;27.05;18.70;;;;;;;;;;5071788;28;20426;-78
2024/01/09 06:37:34;;;;;;;22.15;16.63;;;;;;;;;;5074183;28;20397;-78
2024/01/09 06:40:00;;;;;;;23.17;16.67;;;;;;;;;;5073836;28;20463;-78
2024/01/09 06:42:26;;;;;;;26.52;18.30;;;;;;;;;;5074367;28;20372;-78
2024/01/09 06:44:52;;;;;;;25.10;16.93;;;;;;;;;;5094767;28;20419;-78
2024/01/09 06:47:18;;;;;;;24.35;17.95;;;;;;;;;;5094150;28;20381;-78
2024/01/09 06:49:44;;;;;;;22.87;16.80;;;;;;;;;;5094368;28;20386;-78
2024/01/09 06:52:10;;;;;;;22.20;16.17;;;;;;;;;;5094326;28;20465;-78
2024/01/09 06:54:36;;;;;;;23.15;16.25;;;;;;;;;;5075533;28;20432;-78
2024/01/09 06:57:02;;;;;;;19.80;15.05;;;;;;;;;;5093441;28;20378;-78
2024/01/09 06:59:28;;;;;;;20.33;15.45;;;;;;;;;;5093761;28;20379;-78
2024/01/09 07:01:54;;;;;;;20.98;15.68;;;;;;;;;;5093839;28;20401;-78
2024/01/09 07:04:20;;;;;;;20.50;15.18;;;;;;;;;;5093866;28;20384;-78
2024/01/09 07:06:46;;;;;;;25.13;16.58;;;;;;;;;;5093744;28;20732;-78
2024/01/09 07:09:12;;;;;;;22.60;15.70;;;;;;;;;;5093658;28;20382;-77
2024/01/09 07:11:38;;;;;;;20.80;15.30;;;;;;;;;;5094214;28;20404;-78
2024/01/09 07:14:04;;;;;;;21.35;15.75;;;;;;;;;;5093895;28;20431;-78
2024/01/09 07:16:30;;;;;;;22.70;16.08;;;;;;;;;;5093605;28;20404;-78
2024/01/09 07:18:56;;;;;;;21.20;15.35;;;;;;;;;;5093599;28;20370;-78
2024/01/09 07:21:22;;;;;;;24.15;16.52;;;;;;;;;;5074987;28;20456;-78
2024/01/09 07:23:48;;;;;;;21.23;15.52;;;;;;;;;;5093614;28;20420;-78
2024/01/09 07:26:14;;;;;;;23.00;16.07;;;;;;;;;;5093689;28;20735;-77
2024/01/09 07:28:41;;;;;;;22.05;15.48;;;;;;;;;;5093280;28;20381;-79
2024/01/09 07:31:08;;;;;;;23.30;15.68;;;;;;;;;;5092162;28;20497;-77
2024/01/09 07:33:34;;;;;;;23.42;16.00;;;;;;;;;;5092336;28;20383;-77
2024/01/09 07:36:00;;;;;;;20.10;15.60;;;;;;;;;;5093259;28;20516;-78
2024/01/09 07:38:26;;;;;;;21.73;15.17;;;;;;;;;;5078851;28;20853;-77
2024/01/09 07:40:52;;;;;;;21.08;15.02;;;;;;;;;;5093102;28;20940;-78
2024/01/09 07:43:18;;;;;;;22.55;15.40;;;;;;;;;;5092910;28;20496;-78
2024/01/09 07:45:44;;;;;;;21.08;15.45;;;;;;;;;;5093699;28;20382;-77
2024/01/09 07:48:10;;;;;;;23.27;16.43;;;;;;;;;;5093577;28;20378;-78
2024/01/09 07:50:36;;;;;;;21.77;16.52;;;;;;;;;;5092763;28;20463;-78
2024/01/09 07:53:02;;;;;;;22.60;15.93;;;;;;;;;;5093225;28;20557;-78
2024/01/09 07:55:28;;;;;;;23.00;16.25;;;;;;;;;;5076762;28;20421;-78
2024/01/09 07:57:54;;;;;;;21.83;15.43;;;;;;;;;;5093930;28;20409;-78
2024/01/09 08:00:20;;;;;;;19.92;15.27;;;;;;;;;;5094326;28;20388;-79
2024/01/09 08:02:46;;;;;;;21.23;15.40;;;;;;;;;;5076202;28;20374;-79
2024/01/09 08:05:12;;;;;;;22.10;15.52;;;;;;;;;;5094073;28;21126;-79
2024/01/09 08:07:38;;;;;;;20.80;15.40;;;;;;;;;;5093792;28;20385;-78
2024/01/09 08:10:04;;;;;;;22.73;15.73;;;;;;;;;;5093949;28;20748;-78
2024/01/09 08:12:31;;;;;;;20.38;15.05;;;;;;;;;;5093541;28;20374;-79
2024/01/09 08:14:57;;;;;;;21.88;15.52;;;;;;;;;;5094971;28;20421;-79
2024/01/09 08:17:23;;;;;;;20.88;15.00;;;;;;;;;;5094454;28;20708;-79
2024/01/09 08:19:49;;;;;;;21.48;14.88;;;;;;;;;;5094124;28;20401;-79
2024/01/09 08:22:16;;;;;;;20.90;15.00;;;;;;;;;;5094473;28;20798;-79
2024/01/09 08:24:42;;;;;;;18.88;14.82;;;;;;;;;;5093775;28;20836;-79
2024/01/09 08:27:08;;;;;;;19.83;14.40;;;;;;;;;;5094479;28;20417;-79
2024/01/09 08:29:34;;;;;;;19.45;15.50;;;;;;;;;;5095032;28;20385;-79
2024/01/09 08:32:00;;;;;;;20.98;15.57;;;;;;;;;;5094635;28;20412;-79
2024/01/09 08:34:26;;;;;;;22.50;16.30;;;;;;;;;;5097825;28;20396;-79
2024/01/09 08:36:52;;;;;;;35.65;22.33;;;;;;;;;;5099280;28;20843;-79
2024/01/09 08:39:18;;;;;;;27.00;18.55;;;;;;;;;;5099290;28;20375;-79
2024/01/09 08:41:44;;;;;;;21.83;15.40;;;;;;;;;;5097527;28;20417;-79
2024/01/09 08:44:10;;;;;;;21.05;15.88;;;;;;;;;;5099893;28;20484;-79
2024/01/09 08:46:36;;;;;;;20.42;15.65;;;;;;;;;;5099959;28;20389;-79
2024/01/09 08:49:02;;;;;;;23.20;16.60;;;;;;;;;;5099316;28;20386;-79
2024/01/09 08:51:28;;;;;;;24.83;18.07;;;;;;;;;;5099422;28;20401;-79
2024/01/09 08:53:54;;;;;;;22.30;16.15;;;;;;;;;;5081775;28;20707;-79
2024/01/09 08:56:21;;;;;;;26.02;17.60;;;;;;;;;;5099524;28;20378;-79
2024/01/09 08:58:47;;;;;;;22.75;17.05;;;;;;;;;;5099197;28;20435;-79
2024/01/09 09:01:13;;;;;;;24.20;17.35;;;;;;;;;;5080794;28;20390;-79
2024/01/09 09:03:39;;;;;;;22.58;16.73;;;;;;;;;;5099449;28;20386;-79
2024/01/09 09:06:05;;;;;;;25.02;18.05;;;;;;;;;;5099434;28;20397;-79
2024/01/09 09:08:31;;;;;;;26.20;17.65;;;;;;;;;;5099621;28;20385;-79
2024/01/09 09:10:57;;;;;;;25.65;18.17;;;;;;;;;;5099291;28;20410;-79
2024/01/09 09:13:23;;;;;;;25.65;17.67;;;;;;;;;;5099146;28;20462;-79
2024/01/09 09:15:49;;;;;;;23.95;18.13;;;;;;;;;;5099363;28;20939;-79
2024/01/09 09:18:15;;;;;;;25.20;18.40;;;;;;;;;;5099755;28;20724;-79
2024/01/09 09:20:41;;;;;;;27.38;18.45;;;;;;;;;;5099336;28;20536;-79
2024/01/09 09:23:07;;;;;;;26.55;18.90;;;;;;;;;;5099478;28;20484;-79
2024/01/09 09:25:33;;;;;;;28.42;18.55;;;;;;;;;;5099795;28;20535;-79
2024/01/09 09:27:59;;;;;;;28.88;19.17;;;;;;;;;;5098490;28;20413;-80
2024/01/09 09:30:26;;;;;;;27.98;19.10;;;;;;;;;;5099187;28;20409;-80
2024/01/09 09:32:54;;;;;;;27.42;19.05;;;;;;;;;;5098891;28;20386;-79
2024/01/09 09:35:20;;;;;;;30.10;20.00;;;;;;;;;;5098853;28;20762;-79
2024/01/09 09:37:46;;;;;;;29.05;19.27;;;;;;;;;;5097956;28;20374;-79
2024/01/09 09:40:12;;;;;;;26.90;18.67;;;;;;;;;;5098091;28;20448;-79
2024/01/09 09:42:39;;;;;;;26.35;18.50;;;;;;;;;;5098111;28;20366;-79
2024/01/09 09:45:08;;;;;;;27.85;19.25;;;;;;;;;;5079841;28;20466;-79
2024/01/09 09:47:34;;;;;;;28.55;19.27;;;;;;;;;;5098311;28;20445;-79
2024/01/09 09:50:00;;;;;;;27.85;18.80;;;;;;;;;;5098172;28;20725;-79
2024/01/09 09:52:27;;;;;;;28.45;19.08;;;;;;;;;;5097775;28;20411;-79
2024/01/09 09:54:54;;;;;;;26.30;18.35;;;;;;;;;;5084590;28;20387;-79
2024/01/09 09:57:20;;;;;;;26.08;18.10;;;;;;;;;;5095835;28;20851;-79
2024/01/09 09:59:46;;;;;;;28.40;19.30;;;;;;;;;;5097511;28;20403;-79
2024/01/09 10:02:26;;;;;;;42.17;25.60;;;;;;;;;;5097964;28;20779;-79
2024/01/09 10:04:52;;;;;;;33.65;22.17;;;;;;;;;;5096404;28;20387;-80
2024/01/09 10:07:20;;;;;;;35.95;22.80;;;;;;;;;;5095782;28;20389;-80
2024/01/09 10:09:49;;;;;;;33.75;22.73;;;;;;;;;;5096910;28;20488;-80
2024/01/09 10:12:16;;;;;;;31.70;21.80;;;;;;;;;;5096425;28;20409;-80
2024/01/09 10:15:00;;;;;;;32.63;22.73;;;;;;;;;;5096777;28;20374;-80
2024/01/09 10:17:26;;;;;;;33.50;22.00;;;;;;;;;;5096637;28;20727;-80
2024/01/09 10:19:52;;;;;;;34.00;23.05;;;;;;;;;;5097236;28;20377;-79
2024/01/09 10:22:18;;;;;;;34.95;21.92;;;;;;;;;;5096363;28;20378;-79
2024/01/09 10:24:44;;;;;;;31.75;21.10;;;;;;;;;;5096381;28;20389;-79
2024/01/09 10:27:10;;;;;;;32.10;21.63;;;;;;;;;;5095807;28;20849;-79
2024/01/09 10:29:38;;;;;;;34.05;22.52;;;;;;;;;;5096424;28;20392;-79
2024/01/09 10:32:04;;;;;;;31.67;21.92;;;;;;;;;;5091419;28;20453;-79
2024/01/09 10:34:31;;;;;;;32.92;21.25;;;;;;;;;;5092774;28;20404;-79
2024/01/09 10:37:06;;;;;;;36.80;22.90;;;;;;;;;;5096223;28;20387;-79
2024/01/09 10:39:32;;;;;;;34.47;22.40;;;;;;;;;;5095947;28;20381;-79
2024/01/09 10:42:03;;;;;;;32.22;21.80;;;;;;;;;;5095969;28;20891;-79
2024/01/09 10:44:30;;;;;;;31.03;21.00;;;;;;;;;;5093920;28;20471;-78
2024/01/09 10:46:57;;;;;;;29.27;20.48;;;;;;;;;;5093953;28;20394;-78
2024/01/09 10:49:25;;;;;;;29.83;20.17;;;;;;;;;;5094146;28;20382;-78
2024/01/09 10:51:53;;;;;;;41.83;25.95;;;;;;;;;;5094221;28;20451;-77
2024/01/09 10:54:19;;;;;;;34.95;21.80;;;;;;;;;;5095305;28;20839;-78
2024/01/09 10:56:46;;;;;;;29.90;20.27;;;;;;;;;;5094047;28;20378;-78
2024/01/09 10:59:15;;;;;;;30.77;20.42;;;;;;;;;;5095404;28;20862;-78
2024/01/09 11:01:41;;;;;;;31.65;20.95;;;;;;;;;;5095107;28;20836;-78
2024/01/09 11:04:07;;;;;;;32.63;21.65;;;;;;;;;;5077939;28;20447;-78
2024/01/09 11:06:35;;;;;;;33.25;21.45;;;;;;;;;;5095602;28;20393;-80
2024/01/09 11:09:04;;;;;;;36.60;23.38;;;;;;;;;;5095151;28;20459;-78
2024/01/09 11:11:31;;;;;;;33.60;22.30;;;;;;;;;;5095387;28;20397;-78
2024/01/09 11:14:00;;;;;;;33.88;22.13;;;;;;;;;;5097038;28;20436;-78
2024/01/09 11:16:26;;;;;;;35.25;21.92;;;;;;;;;;5096091;28;20398;-78
2024/01/09 11:18:52;;;;;;;33.65;22.05;;;;;;;;;;5097032;28;20374;-78
2024/01/09 11:21:26;;;;;;;35.30;22.08;;;;;;;;;;5095615;28;20815;-78
2024/01/09 11:23:57;;;;;;;38.45;22.58;;;;;;;;;;5069400;28;20494;-78
2024/01/09 11:26:23;;;;;;;34.63;23.42;;;;;;;;;;5095755;28;20903;-78
2024/01/09 11:28:49;;;;;;;36.70;24.40;;;;;;;;;;5096569;28;20386;-78
2024/01/09 11:31:23;;;;;;;38.47;24.90;;;;;;;;;;5094966;28;20421;-78
2024/01/09 11:33:51;;;;;;;35.45;22.88;;;;;;;;;;5093433;28;20382;-77
2024/01/09 11:36:24;;;;;;;31.48;22.05;;;;;;;;;;5093900;28;20374;-77
2024/01/09 11:38:52;;;;;;;32.58;21.27;;;;;;;;;;5080943;28;20370;-78
2024/01/09 11:41:18;;;;;;;38.97;22.75;;;;;;;;;;5095792;28;20848;-78
2024/01/09 11:44:04;;;;;;;33.78;21.73;;;;;;;;;;5099930;28;20729;-78
2024/01/09 11:46:37;;;;;;;35.22;22.70;;;;;;;;;;5098572;28;20390;-78
2024/01/09 11:49:03;;;;;;;33.35;22.27;;;;;;;;;;5099723;28;20468;-79
2024/01/09 11:51:30;;;;;;;34.67;21.83;;;;;;;;;;5100803;28;20504;-81
2024/01/09 11:53:58;;;;;;;34.07;22.00;;;;;;;;;;5104827;28;20460;-81
2024/01/09 11:56:25;;;;;;;35.05;21.90;;;;;;;;;;5103740;28;20380;-82
2024/01/09 11:58:52;;;;;;;34.80;21.87;;;;;;;;;;5102140;28;20386;-81
2024/01/09 12:01:24;;;;;;;36.72;22.88;;;;;;;;;;5097977;28;20413;-80
2024/01/09 12:03:51;;;;;;;35.63;22.90;;;;;;;;;;5100257;28;20378;-79
2024/01/09 12:06:17;;;;;;;34.70;22.43;;;;;;;;;;5100853;28;20374;-79
2024/01/09 12:08:43;;;;;;;41.72;25.63;;;;;;;;;;5100006;28;20406;-81
2024/01/09 12:11:09;;;;;;;33.08;22.10;;;;;;;;;;5099724;28;20448;-80
2024/01/09 12:13:35;;;;;;;47.90;28.25;;;;;;;;;;5099651;28;20381;-79
2024/01/09 12:16:14;;;;;;;75.80;36.57;;;;;;;;;;5099525;28;20373;-79
2024/01/09 12:18:55;;;;;;;40.17;25.00;;;;;;;;;;5100365;28;25094;-78
2024/01/09 12:21:24;;;;;;;32.28;21.33;;;;;;;;;;5093478;28;20421;-79
2024/01/09 12:23:51;;;;;;;34.75;21.65;;;;;;;;;;5100001;28;20377;-79
2024/01/09 12:26:19;;;;;;;34.95;22.23;;;;;;;;;;5094571;28;20408;-79
2024/01/09 12:28:45;;;;;;;34.67;21.85;;;;;;;;;;5089377;28;20537;-79
2024/01/09 12:31:11;;;;;;;32.67;21.67;;;;;;;;;;5086312;28;20491;-79
2024/01/09 12:33:38;;;;;;;33.97;22.02;;;;;;;;;;5098273;28;20489;-79
2024/01/09 12:36:04;;;;;;;31.33;20.85;;;;;;;;;;5088105;28;20391;-79
2024/01/09 12:38:31;;;;;;;30.95;20.55;;;;;;;;;;5093207;28;20381;-79
2024/01/09 12:41:00;;;;;;;33.38;21.08;;;;;;;;;;5097596;28;20374;-79
2024/01/09 12:43:27;;;;;;;32.95;21.55;;;;;;;;;;5098348;28;20423;-79
2024/01/09 12:45:54;;;;;;;31.27;21.13;;;;;;;;;;5097910;28;20381;-79
2024/01/09 12:48:20;;;;;;;33.20;21.90;;;;;;;;;;5099041;28;20729;-79
2024/01/09 12:50:57;;;;;;;29.38;20.10;;;;;;;;;;5098667;28;20436;-79
2024/01/09 12:53:23;;;;;;;31.42;20.63;;;;;;;;;;5099484;28;20409;-79
2024/01/09 12:56:01;;;;;;;32.13;21.92;;;;;;;;;;5098747;28;20386;-79
2024/01/09 12:58:27;;;;;;;31.52;22.08;;;;;;;;;;5097044;28;20370;-78
2024/01/09 13:00:53;;;;;;;35.08;22.58;;;;;;;;;;5097110;28;20446;-78
2024/01/09 13:03:19;;;;;;;34.50;22.25;;;;;;;;;;5094637;28;20385;-79
2024/01/09 13:05:45;;;;;;;36.80;21.98;;;;;;;;;;5091628;28;20390;-79
2024/01/09 13:08:11;;;;;;;33.22;21.73;;;;;;;;;;5098813;28;20446;-78
2024/01/09 13:10:37;;;;;;;37.78;23.20;;;;;;;;;;5096771;28;20406;-78
2024/01/09 13:13:03;;;;;;;35.55;22.67;;;;;;;;;;5095986;28;20413;-78
2024/01/09 13:15:29;;;;;;;34.55;22.17;;;;;;;;;;5095443;28;20848;-79
2024/01/09 13:17:55;;;;;;;35.42;22.73;;;;;;;;;;5096352;28;20394;-79
2024/01/09 13:20:21;;;;;;;35.65;22.20;;;;;;;;;;5101176;28;20803;-78
2024/01/09 13:22:47;;;;;;;34.80;21.50;;;;;;;;;;5102508;28;20381;-79
2024/01/09 13:25:13;;;;;;;30.55;20.15;;;;;;;;;;5103110;28;20366;-78
2024/01/09 13:27:39;;;;;;;31.27;20.80;;;;;;;;;;5098754;28;20416;-77
2024/01/09 13:30:07;;;;;;;29.67;19.77;;;;;;;;;;5078430;28;20389;-78
2024/01/09 13:32:33;;;;;;;30.98;19.98;;;;;;;;;;5096774;28;20409;-78
2024/01/09 13:34:58;;;;;;;31.38;19.55;;;;;;;;;;5099646;28;20994;-79
2024/01/09 13:37:24;;;;;;;28.60;19.83;;;;;;;;;;5100543;28;20393;-79
2024/01/09 13:39:50;;;;;;;28.83;19.15;;;;;;;;;;5100452;28;20400;-79
2024/01/09 13:42:16;;;;;;;29.93;20.07;;;;;;;;;;5102471;28;20473;-79
2024/01/09 13:44:42;;;;;;;28.38;18.77;;;;;;;;;;5102171;28;20406;-79
2024/01/09 13:47:09;;;;;;;28.65;19.13;;;;;;;;;;5101915;28;20393;-80
2024/01/09 13:49:34;;;;;;;28.38;19.45;;;;;;;;;;5100354;28;20409;-80
2024/01/09 13:52:01;;;;;;;29.80;19.73;;;;;;;;;;5101685;28;20775;-80
2024/01/09 13:54:27;;;;;;;32.97;19.80;;;;;;;;;;5099802;28;20382;-80
2024/01/09 13:56:53;;;;;;;28.63;19.67;;;;;;;;;;5092148;28;20396;-83
2024/01/09 13:59:19;;;;;;;27.08;18.73;;;;;;;;;;5095900;28;20369;-83
2024/01/09 14:01:45;;;;;;;30.02;19.17;;;;;;;;;;5097231;28;20374;-82
2024/01/09 14:04:15;;;;;;;27.77;19.00;;;;;;;;;;5097608;28;20457;-82
2024/01/09 14:06:41;;;;;;;29.40;18.88;;;;;;;;;;5097014;28;20720;-82
2024/01/09 14:09:08;;;;;;;30.42;19.35;;;;;;;;;;5096923;28;20382;-82
2024/01/09 14:11:33;;;;;;;29.43;19.23;;;;;;;;;;5096712;28;20827;-82
2024/01/09 14:13:59;;;;;;;30.17;20.35;;;;;;;;;;5096935;28;20434;-82